sensor_id;sensor_type;location;lat;lon;timestamp;pressure;altitude;pressure_sealevel;temperature;humidity
7200;BME280;3641;49.082;8.200;2022-10-04T00:01:22;101124.19;;;9.06;86.47
7200;BME280;3641;49.082;8.200;2022-10-04T00:03:51;101122.84;;;9.11;86.06
7200;BME280;3641;49.082;8.200;2022-10-04T00:06:25;101125.25;;;9.14;85.91
7200;BME280;3641;49.082;8.200;2022-10-04T00:08:54;101126.19;;;9.04;85.56
7200;BME280;3641;49.082;8.200;2022-10-04T00:11:25;101118.44;;;9.09;85.21
7200;BME280;3641;49.082;8.200;2022-10-04T00:13:57;101122.78;;;9.02;85.73
7200;BME280;3641;49.082;8.200;2022-10-04T00:16:28;101123.47;;;9.04;85.62
7200;BME280;3641;49.082;8.200;2022-10-04T00:19:02;101112.72;;;9.03;85.21
7200;BME280;3641;49.082;8.200;2022-10-04T00:22:15;101118.81;;;8.97;86.03
7200;BME280;3641;49.082;8.200;2022-10-04T00:31:23;101107.50;;;8.91;84.96
7200;BME280;3641;49.082;8.200;2022-10-04T00:33:56;101111.44;;;8.89;85.26
7200;BME280;3641;49.082;8.200;2022-10-04T00:36:50;101111.97;;;8.93;85.26
7200;BME280;3641;49.082;8.200;2022-10-04T00:39:26;101116.31;;;8.85;85.35
7200;BME280;3641;49.082;8.200;2022-10-04T00:42:12;101111.81;;;8.76;85.76
7200;BME280;3641;49.082;8.200;2022-10-04T00:44:46;101113.97;;;8.72;85.56
7200;BME280;3641;49.082;8.200;2022-10-04T00:47:24;101115.38;;;8.77;85.19
7200;BME280;3641;49.082;8.200;2022-10-04T00:50:02;101110.53;;;8.70;85.52
7200;BME280;3641;49.082;8.200;2022-10-04T00:52:34;101102.91;;;8.74;85.38
7200;BME280;3641;49.082;8.200;2022-10-04T00:55:05;101108.94;;;8.78;85.29
7200;BME280;3641;49.082;8.200;2022-10-04T00:57:36;101104.66;;;8.75;85.75
7200;BME280;3641;49.082;8.200;2022-10-04T01:00:07;101114.03;;;8.63;86.59
7200;BME280;3641;49.082;8.200;2022-10-04T01:02:45;101109.03;;;8.58;89.15
7200;BME280;3641;49.082;8.200;2022-10-04T01:05:18;101104.78;;;8.73;85.64
7200;BME280;3641;49.082;8.200;2022-10-04T01:07:48;101096.78;;;8.72;85.31
7200;BME280;3641;49.082;8.200;2022-10-04T01:10:20;101098.81;;;8.70;85.55
7200;BME280;3641;49.082;8.200;2022-10-04T01:12:50;101093.84;;;8.65;86.36
7200;BME280;3641;49.082;8.200;2022-10-04T01:15:24;101101.38;;;8.71;86.39
7200;BME280;3641;49.082;8.200;2022-10-04T01:18:11;101099.88;;;8.77;86.34
7200;BME280;3641;49.082;8.200;2022-10-04T01:20:40;101098.34;;;8.75;85.77
7200;BME280;3641;49.082;8.200;2022-10-04T01:23:30;101092.75;;;8.76;85.55
7200;BME280;3641;49.082;8.200;2022-10-04T01:25:57;101091.09;;;8.65;86.56
7200;BME280;3641;49.082;8.200;2022-10-04T01:28:24;101094.38;;;8.69;86.16
7200;BME280;3641;49.082;8.200;2022-10-04T01:30:51;101084.47;;;8.68;86.37
7200;BME280;3641;49.082;8.200;2022-10-04T01:33:18;101079.22;;;8.66;85.91
7200;BME280;3641;49.082;8.200;2022-10-04T01:35:45;101068.53;;;8.55;86.76
7200;BME280;3641;49.082;8.200;2022-10-04T01:38:12;101070.94;;;8.58;86.36
7200;BME280;3641;49.082;8.200;2022-10-04T01:40:45;101060.31;;;8.65;86.49
7200;BME280;3641;49.082;8.200;2022-10-04T01:43:15;101059.22;;;8.58;85.66
7200;BME280;3641;49.082;8.200;2022-10-04T01:45:47;101054.38;;;8.51;86.07
7200;BME280;3641;49.082;8.200;2022-10-04T01:48:19;101047.19;;;8.60;86.38
7200;BME280;3641;49.082;8.200;2022-10-04T01:50:52;101046.59;;;8.57;88.19
7200;BME280;3641;49.082;8.200;2022-10-04T01:53:24;101043.28;;;8.63;87.58
7200;BME280;3641;49.082;8.200;2022-10-04T01:55:55;101037.69;;;8.64;87.52
7200;BME280;3641;49.082;8.200;2022-10-04T01:58:25;101033.41;;;8.62;87.11
7200;BME280;3641;49.082;8.200;2022-10-04T02:00:56;101040.25;;;8.66;86.63
7200;BME280;3641;49.082;8.200;2022-10-04T02:03:29;101045.69;;;8.66;86.84
7200;BME280;3641;49.082;8.200;2022-10-04T02:06:01;101046.38;;;8.68;86.70
7200;BME280;3641;49.082;8.200;2022-10-04T02:08:32;101045.69;;;8.66;86.43
7200;BME280;3641;49.082;8.200;2022-10-04T02:11:03;101049.28;;;8.66;86.14
7200;BME280;3641;49.082;8.200;2022-10-04T02:13:33;101046.06;;;8.71;86.86
7200;BME280;3641;49.082;8.200;2022-10-04T02:16:01;101050.75;;;8.61;87.19
7200;BME280;3641;49.082;8.200;2022-10-04T02:18:30;101044.06;;;8.73;86.04
7200;BME280;3641;49.082;8.200;2022-10-04T02:20:58;101041.66;;;8.70;85.68
7200;BME280;3641;49.082;8.200;2022-10-04T02:23:25;101046.31;;;8.60;86.99
7200;BME280;3641;49.082;8.200;2022-10-04T02:25:53;101053.31;;;8.62;87.02
7200;BME280;3641;49.082;8.200;2022-10-04T02:28:21;101049.75;;;8.62;87.45
7200;BME280;3641;49.082;8.200;2022-10-04T02:30:49;101041.44;;;8.63;87.76
7200;BME280;3641;49.082;8.200;2022-10-04T02:33:30;101043.13;;;8.64;88.48
7200;BME280;3641;49.082;8.200;2022-10-04T02:35:58;101039.94;;;8.69;87.44
7200;BME280;3641;49.082;8.200;2022-10-04T02:38:28;101031.22;;;8.65;86.68
7200;BME280;3641;49.082;8.200;2022-10-04T02:41:02;101025.63;;;8.67;86.47
7200;BME280;3641;49.082;8.200;2022-10-04T02:43:36;101018.31;;;8.67;86.85
7200;BME280;3641;49.082;8.200;2022-10-04T02:46:11;101025.56;;;8.59;88.13
7200;BME280;3641;49.082;8.200;2022-10-04T02:48:44;101023.16;;;8.56;87.06
7200;BME280;3641;49.082;8.200;2022-10-04T02:51:19;101030.13;;;8.58;87.42
7200;BME280;3641;49.082;8.200;2022-10-04T02:53:51;101019.41;;;8.57;87.17
7200;BME280;3641;49.082;8.200;2022-10-04T02:56:20;101024.00;;;8.56;87.53
7200;BME280;3641;49.082;8.200;2022-10-04T02:58:49;101023.84;;;8.58;87.48
7200;BME280;3641;49.082;8.200;2022-10-04T03:01:24;101017.09;;;8.62;86.69
7200;BME280;3641;49.082;8.200;2022-10-04T03:03:52;101024.69;;;8.58;86.74
7200;BME280;3641;49.082;8.200;2022-10-04T03:06:22;101018.56;;;8.56;86.25
7200;BME280;3641;49.082;8.200;2022-10-04T03:08:52;101029.38;;;8.48;88.04
7200;BME280;3641;49.082;8.200;2022-10-04T03:11:21;101028.16;;;8.32;92.83
7200;BME280;3641;49.082;8.200;2022-10-04T03:13:52;101014.34;;;8.44;90.87
7200;BME280;3641;49.082;8.200;2022-10-04T03:16:21;101010.94;;;8.60;87.79
7200;BME280;3641;49.082;8.200;2022-10-04T03:18:48;101002.44;;;8.63;87.70
7200;BME280;3641;49.082;8.200;2022-10-04T03:21:17;101007.50;;;8.58;88.64
7200;BME280;3641;49.082;8.200;2022-10-04T03:23:45;101002.59;;;8.61;87.67
7200;BME280;3641;49.082;8.200;2022-10-04T03:26:18;101001.47;;;8.46;89.69
7200;BME280;3641;49.082;8.200;2022-10-04T03:28:46;101003.97;;;8.11;94.97
7200;BME280;3641;49.082;8.200;2022-10-04T03:31:15;101003.81;;;8.31;92.19
7200;BME280;3641;49.082;8.200;2022-10-04T03:33:44;100998.03;;;8.44;91.15
7200;BME280;3641;49.082;8.200;2022-10-04T03:36:13;101003.50;;;8.34;93.72
7200;BME280;3641;49.082;8.200;2022-10-04T03:38:42;101004.69;;;8.31;93.16
7200;BME280;3641;49.082;8.200;2022-10-04T03:41:10;100997.94;;;8.53;90.59
7200;BME280;3641;49.082;8.200;2022-10-04T03:43:43;100995.88;;;8.19;95.16
7200;BME280;3641;49.082;8.200;2022-10-04T03:46:10;101002.91;;;8.40;92.53
7200;BME280;3641;49.082;8.200;2022-10-04T03:48:42;100996.50;;;8.13;95.72
7200;BME280;3641;49.082;8.200;2022-10-04T03:51:13;100999.78;;;8.17;94.38
7200;BME280;3641;49.082;8.200;2022-10-04T03:53:43;100999.03;;;7.97;97.61
7200;BME280;3641;49.082;8.200;2022-10-04T03:56:11;101004.31;;;7.98;96.67
7200;BME280;3641;49.082;8.200;2022-10-04T03:58:38;101008.09;;;7.88;96.89
7200;BME280;3641;49.082;8.200;2022-10-04T04:01:14;101015.19;;;7.98;97.04
7200;BME280;3641;49.082;8.200;2022-10-04T04:03:52;101013.59;;;7.78;98.09
7200;BME280;3641;49.082;8.200;2022-10-04T04:06:21;101012.09;;;7.93;97.60
7200;BME280;3641;49.082;8.200;2022-10-04T04:08:51;101017.09;;;8.16;93.38
7200;BME280;3641;49.082;8.200;2022-10-04T04:11:22;101025.56;;;8.31;91.46
7200;BME280;3641;49.082;8.200;2022-10-04T04:13:57;101021.72;;;8.06;96.64
7200;BME280;3641;49.082;8.200;2022-10-04T04:16:25;101018.56;;;8.10;95.08
7200;BME280;3641;49.082;8.200;2022-10-04T04:18:58;101021.53;;;8.17;92.97
7200;BME280;3641;49.082;8.200;2022-10-04T04:21:25;101017.13;;;8.34;91.58
7200;BME280;3641;49.082;8.200;2022-10-04T04:23:55;101022.00;;;8.30;91.77
7200;BME280;3641;49.082;8.200;2022-10-04T04:26:28;101023.09;;;8.37;90.30
7200;BME280;3641;49.082;8.200;2022-10-04T04:29:03;101016.28;;;8.06;95.27
7200;BME280;3641;49.082;8.200;2022-10-04T04:31:35;101018.53;;;7.92;96.38
7200;BME280;3641;49.082;8.200;2022-10-04T04:34:14;101021.69;;;8.15;94.37
7200;BME280;3641;49.082;8.200;2022-10-04T04:36:41;101023.50;;;7.97;95.29
7200;BME280;3641;49.082;8.200;2022-10-04T04:39:14;101023.00;;;8.11;94.85
7200;BME280;3641;49.082;8.200;2022-10-04T04:42:03;101018.66;;;7.91;95.15
7200;BME280;3641;49.082;8.200;2022-10-04T04:44:31;101014.66;;;7.95;95.65
7200;BME280;3641;49.082;8.200;2022-10-04T04:46:58;101015.78;;;8.20;92.94
7200;BME280;3641;49.082;8.200;2022-10-04T04:49:28;101015.09;;;7.90;95.36
7200;BME280;3641;49.082;8.200;2022-10-04T04:51:57;101022.81;;;7.95;95.13
7200;BME280;3641;49.082;8.200;2022-10-04T04:54:24;101021.94;;;7.94;94.47
7200;BME280;3641;49.082;8.200;2022-10-04T04:56:53;101022.75;;;8.05;93.74
7200;BME280;3641;49.082;8.200;2022-10-04T04:59:22;101031.75;;;8.05;92.49
7200;BME280;3641;49.082;8.200;2022-10-04T05:01:51;101027.97;;;8.16;92.32
7200;BME280;3641;49.082;8.200;2022-10-04T05:04:19;101023.28;;;8.08;93.37
7200;BME280;3641;49.082;8.200;2022-10-04T05:06:58;101029.22;;;8.22;90.38
7200;BME280;3641;49.082;8.200;2022-10-04T05:09:28;101031.09;;;8.21;91.33
7200;BME280;3641;49.082;8.200;2022-10-04T05:11:58;101030.31;;;8.11;92.07
7200;BME280;3641;49.082;8.200;2022-10-04T05:14:27;101031.09;;;8.21;90.03
7200;BME280;3641;49.082;8.200;2022-10-04T05:16:55;101038.72;;;8.35;89.33
7200;BME280;3641;49.082;8.200;2022-10-04T05:19:25;101027.06;;;8.25;89.53
7200;BME280;3641;49.082;8.200;2022-10-04T05:21:57;101030.72;;;8.34;89.01
7200;BME280;3641;49.082;8.200;2022-10-04T05:24:27;101043.38;;;8.25;90.27
7200;BME280;3641;49.082;8.200;2022-10-04T05:26:57;101047.25;;;8.23;90.44
7200;BME280;3641;49.082;8.200;2022-10-04T05:29:26;101050.72;;;8.15;92.19
7200;BME280;3641;49.082;8.200;2022-10-04T05:32:01;101051.16;;;8.20;89.58
7200;BME280;3641;49.082;8.200;2022-10-04T05:34:35;101056.84;;;8.27;88.30
7200;BME280;3641;49.082;8.200;2022-10-04T05:37:15;101047.25;;;8.23;89.46
7200;BME280;3641;49.082;8.200;2022-10-04T05:39:53;101051.94;;;8.30;88.65
7200;BME280;3641;49.082;8.200;2022-10-04T05:42:35;101045.66;;;8.30;88.52
7200;BME280;3641;49.082;8.200;2022-10-04T05:45:12;101045.94;;;8.27;87.88
7200;BME280;3641;49.082;8.200;2022-10-04T05:47:40;101049.59;;;8.17;89.32
7200;BME280;3641;49.082;8.200;2022-10-04T05:50:15;101046.25;;;8.24;89.81
7200;BME280;3641;49.082;8.200;2022-10-04T05:52:46;101044.34;;;8.06;90.72
7200;BME280;3641;49.082;8.200;2022-10-04T05:55:26;101037.94;;;8.25;89.50
7200;BME280;3641;49.082;8.200;2022-10-04T05:58:26;101032.66;;;8.24;88.89
7200;BME280;3641;49.082;8.200;2022-10-04T06:01:12;101033.50;;;8.24;89.69
7200;BME280;3641;49.082;8.200;2022-10-04T06:04:01;101032.59;;;8.33;88.28
7200;BME280;3641;49.082;8.200;2022-10-04T06:06:35;101029.31;;;8.30;89.13
7200;BME280;3641;49.082;8.200;2022-10-04T06:09:11;101024.97;;;8.37;88.16
7200;BME280;3641;49.082;8.200;2022-10-04T06:11:51;101022.22;;;8.19;90.76
7200;BME280;3641;49.082;8.200;2022-10-04T06:14:49;101021.25;;;7.92;93.07
7200;BME280;3641;49.082;8.200;2022-10-04T06:17:31;101025.00;;;7.81;93.07
7200;BME280;3641;49.082;8.200;2022-10-04T06:20:19;101027.66;;;8.01;93.00
7200;BME280;3641;49.082;8.200;2022-10-04T06:22:55;101025.34;;;8.24;89.86
7200;BME280;3641;49.082;8.200;2022-10-04T06:25:28;101033.44;;;8.34;90.48
7200;BME280;3641;49.082;8.200;2022-10-04T06:27:58;101031.25;;;8.19;91.88
7200;BME280;3641;49.082;8.200;2022-10-04T06:30:31;101032.75;;;8.32;89.94
7200;BME280;3641;49.082;8.200;2022-10-04T06:33:18;101031.59;;;8.34;91.07
7200;BME280;3641;49.082;8.200;2022-10-04T06:35:58;101047.00;;;8.44;88.99
7200;BME280;3641;49.082;8.200;2022-10-04T06:41:44;101055.16;;;8.44;88.62
7200;BME280;3641;49.082;8.200;2022-10-04T06:47:22;101048.31;;;8.40;89.08
7200;BME280;3641;49.082;8.200;2022-10-04T06:49:56;101053.38;;;8.25;90.76
7200;BME280;3641;49.082;8.200;2022-10-04T06:52:31;101056.41;;;8.22;90.55
7200;BME280;3641;49.082;8.200;2022-10-04T06:58:30;101063.66;;;8.31;90.46
7200;BME280;3641;49.082;8.200;2022-10-04T07:01:10;101062.34;;;8.35;90.66
7200;BME280;3641;49.082;8.200;2022-10-04T07:03:48;101065.38;;;8.32;90.87
7200;BME280;3641;49.082;8.200;2022-10-04T07:06:22;101063.00;;;8.47;88.94
7200;BME280;3641;49.082;8.200;2022-10-04T07:08:50;101062.59;;;8.42;89.53
7200;BME280;3641;49.082;8.200;2022-10-04T07:11:23;101064.13;;;8.26;90.41
7200;BME280;3641;49.082;8.200;2022-10-04T07:13:56;101059.28;;;8.48;90.24
7200;BME280;3641;49.082;8.200;2022-10-04T07:16:29;101067.38;;;8.58;89.20
7200;BME280;3641;49.082;8.200;2022-10-04T07:19:04;101064.44;;;8.51;89.60
7200;BME280;3641;49.082;8.200;2022-10-04T07:21:38;101061.00;;;8.49;91.09
7200;BME280;3641;49.082;8.200;2022-10-04T07:24:11;101064.34;;;8.61;89.59
7200;BME280;3641;49.082;8.200;2022-10-04T07:26:45;101064.72;;;8.48;91.77
7200;BME280;3641;49.082;8.200;2022-10-04T07:29:17;101065.50;;;8.58;90.06
7200;BME280;3641;49.082;8.200;2022-10-04T07:31:51;101072.97;;;8.56;90.28
7200;BME280;3641;49.082;8.200;2022-10-04T07:34:21;101073.38;;;8.33;92.79
7200;BME280;3641;49.082;8.200;2022-10-04T07:36:52;101075.47;;;8.49;91.43
7200;BME280;3641;49.082;8.200;2022-10-04T07:39:22;101082.56;;;8.60;90.19
7200;BME280;3641;49.082;8.200;2022-10-04T07:41:51;101078.66;;;8.63;91.08
7200;BME280;3641;49.082;8.200;2022-10-04T07:44:28;101077.88;;;8.52;93.35
7200;BME280;3641;49.082;8.200;2022-10-04T07:47:01;101069.72;;;8.52;94.12
7200;BME280;3641;49.082;8.200;2022-10-04T07:49:36;101067.78;;;8.63;92.74
7200;BME280;3641;49.082;8.200;2022-10-04T07:52:29;101072.44;;;8.70;92.33
7200;BME280;3641;49.082;8.200;2022-10-04T07:55:07;101067.94;;;8.79;90.27
7200;BME280;3641;49.082;8.200;2022-10-04T07:57:43;101066.44;;;8.85;92.99
7200;BME280;3641;49.082;8.200;2022-10-04T08:00:18;101072.91;;;8.84;92.72
7200;BME280;3641;49.082;8.200;2022-10-04T08:02:55;101062.19;;;8.82;91.24
7200;BME280;3641;49.082;8.200;2022-10-04T08:05:28;101069.09;;;8.59;94.08
7200;BME280;3641;49.082;8.200;2022-10-04T08:08:12;101075.94;;;8.63;93.15
7200;BME280;3641;49.082;8.200;2022-10-04T08:10:49;101077.19;;;8.86;91.68
7200;BME280;3641;49.082;8.200;2022-10-04T08:13:25;101081.69;;;8.96;91.32
7200;BME280;3641;49.082;8.200;2022-10-04T08:15:58;101069.72;;;8.88;92.97
7200;BME280;3641;49.082;8.200;2022-10-04T08:18:39;101071.34;;;8.99;92.03
7200;BME280;3641;49.082;8.200;2022-10-04T08:21:13;101071.72;;;9.04;92.05
7200;BME280;3641;49.082;8.200;2022-10-04T08:24:03;101081.59;;;9.05;92.77
7200;BME280;3641;49.082;8.200;2022-10-04T08:26:53;101079.78;;;9.14;90.88
7200;BME280;3641;49.082;8.200;2022-10-04T08:29:33;101083.53;;;9.13;91.31
7200;BME280;3641;49.082;8.200;2022-10-04T08:32:19;101088.38;;;9.19;91.73
7200;BME280;3641;49.082;8.200;2022-10-04T08:35:01;101096.06;;;9.06;94.17
7200;BME280;3641;49.082;8.200;2022-10-04T08:37:39;101088.06;;;9.22;91.08
7200;BME280;3641;49.082;8.200;2022-10-04T08:40:42;101084.44;;;9.22;92.03
7200;BME280;3641;49.082;8.200;2022-10-04T08:43:39;101087.59;;;9.27;91.55
7200;BME280;3641;49.082;8.200;2022-10-04T08:46:31;101071.88;;;9.21;93.00
7200;BME280;3641;49.082;8.200;2022-10-04T08:49:19;101072.94;;;9.28;91.33
7200;BME280;3641;49.082;8.200;2022-10-04T08:52:24;101068.56;;;9.35;91.60
7200;BME280;3641;49.082;8.200;2022-10-04T08:58:23;101065.78;;;9.09;94.66
7200;BME280;3641;49.082;8.200;2022-10-04T09:01:10;101065.38;;;9.40;91.88
7200;BME280;3641;49.082;8.200;2022-10-04T09:07:45;101063.66;;;9.39;92.52
7200;BME280;3641;49.082;8.200;2022-10-04T09:10:34;101072.94;;;9.28;93.71
7200;BME280;3641;49.082;8.200;2022-10-04T09:13:18;101072.13;;;9.36;93.76
7200;BME280;3641;49.082;8.200;2022-10-04T09:15:52;101064.38;;;9.49;91.54
7200;BME280;3641;49.082;8.200;2022-10-04T09:18:28;101064.31;;;9.41;92.31
7200;BME280;3641;49.082;8.200;2022-10-04T09:21:08;101067.66;;;9.53;92.19
7200;BME280;3641;49.082;8.200;2022-10-04T09:24:09;101077.59;;;9.36;93.90
7200;BME280;3641;49.082;8.200;2022-10-04T09:26:51;101066.91;;;9.69;91.51
7200;BME280;3641;49.082;8.200;2022-10-04T09:29:40;101072.06;;;9.80;91.29
7200;BME280;3641;49.082;8.200;2022-10-04T09:32:41;101070.22;;;9.89;90.78
7200;BME280;3641;49.082;8.200;2022-10-04T09:35:27;101070.22;;;9.89;91.47
7200;BME280;3641;49.082;8.200;2022-10-04T09:38:18;101070.97;;;9.99;90.94
7200;BME280;3641;49.082;8.200;2022-10-04T09:41:04;101071.34;;;9.78;93.63
7200;BME280;3641;49.082;8.200;2022-10-04T09:43:58;101071.78;;;9.91;92.29
7200;BME280;3641;49.082;8.200;2022-10-04T09:46:52;101075.50;;;9.90;91.95
7200;BME280;3641;49.082;8.200;2022-10-04T09:49:41;101078.13;;;10.00;91.08
7200;BME280;3641;49.082;8.200;2022-10-04T09:52:33;101079.16;;;9.99;91.25
7200;BME280;3641;49.082;8.200;2022-10-04T09:55:15;101072.84;;;10.07;91.22
7200;BME280;3641;49.082;8.200;2022-10-04T09:58:14;101077.28;;;9.99;91.53
7200;BME280;3641;49.082;8.200;2022-10-04T10:00:52;101073.16;;;9.95;92.02
7200;BME280;3641;49.082;8.200;2022-10-04T10:03:41;101067.19;;;9.92;93.15
7200;BME280;3641;49.082;8.200;2022-10-04T10:06:23;101074.63;;;10.24;91.18
7200;BME280;3641;49.082;8.200;2022-10-04T10:09:04;101072.88;;;10.49;90.08
7200;BME280;3641;49.082;8.200;2022-10-04T10:11:43;101068.97;;;10.60;90.23
7200;BME280;3641;49.082;8.200;2022-10-04T10:14:59;101064.81;;;10.40;90.32
7200;BME280;3641;49.082;8.200;2022-10-04T10:17:37;101060.63;;;10.19;93.18
7200;BME280;3641;49.082;8.200;2022-10-04T10:20:28;101056.63;;;10.40;92.17
7200;BME280;3641;49.082;8.200;2022-10-04T10:23:24;101059.94;;;10.60;91.30
7200;BME280;3641;49.082;8.200;2022-10-04T10:26:08;101056.53;;;10.90;91.89
7200;BME280;3641;49.082;8.200;2022-10-04T10:28:57;101062.88;;;11.07;89.62
7200;BME280;3641;49.082;8.200;2022-10-04T10:31:47;101063.03;;;11.06;89.77
7200;BME280;3641;49.082;8.200;2022-10-04T10:34:42;101060.78;;;11.34;89.05
7200;BME280;3641;49.082;8.200;2022-10-04T10:37:12;101052.72;;;11.57;88.49
7200;BME280;3641;49.082;8.200;2022-10-04T10:40:27;101058.81;;;11.84;87.39
7200;BME280;3641;49.082;8.200;2022-10-04T10:43:15;101050.78;;;11.82;87.61
7200;BME280;3641;49.082;8.200;2022-10-04T10:46:25;101044.25;;;11.84;86.65
7200;BME280;3641;49.082;8.200;2022-10-04T10:49:17;101037.41;;;11.96;86.24
7200;BME280;3641;49.082;8.200;2022-10-04T10:52:15;101043.25;;;11.85;87.26
7200;BME280;3641;49.082;8.200;2022-10-04T10:55:07;101043.06;;;11.94;85.98
7200;BME280;3641;49.082;8.200;2022-10-04T10:57:56;101041.16;;;11.95;87.46
7200;BME280;3641;49.082;8.200;2022-10-04T11:00:32;101029.03;;;11.97;87.43
7200;BME280;3641;49.082;8.200;2022-10-04T11:03:35;101021.84;;;11.96;86.48
7200;BME280;3641;49.082;8.200;2022-10-04T11:06:28;101012.50;;;12.14;88.43
7200;BME280;3641;49.082;8.200;2022-10-04T11:09:45;101023.22;;;12.32;85.74
7200;BME280;3641;49.082;8.200;2022-10-04T11:12:43;101023.53;;;12.37;84.96
7200;BME280;3641;49.082;8.200;2022-10-04T11:15:39;101022.81;;;12.43;86.83
7200;BME280;3641;49.082;8.200;2022-10-04T11:18:42;101015.38;;;12.52;86.41
7200;BME280;3641;49.082;8.200;2022-10-04T11:21:35;101010.63;;;12.46;85.49
7200;BME280;3641;49.082;8.200;2022-10-04T11:24:26;101010.00;;;12.59;85.77
7200;BME280;3641;49.082;8.200;2022-10-04T11:27:11;101006.06;;;12.61;86.60
7200;BME280;3641;49.082;8.200;2022-10-04T11:29:51;101003.69;;;12.81;86.52
7200;BME280;3641;49.082;8.200;2022-10-04T11:35:43;101004.03;;;13.01;86.02
7200;BME280;3641;49.082;8.200;2022-10-04T11:38:23;100996.63;;;13.02;84.98
7200;BME280;3641;49.082;8.200;2022-10-04T11:41:12;101004.25;;;13.15;85.38
7200;BME280;3641;49.082;8.200;2022-10-04T11:44:03;100998.97;;;13.13;84.38
7200;BME280;3641;49.082;8.200;2022-10-04T11:46:36;101009.94;;;13.13;83.43
7200;BME280;3641;49.082;8.200;2022-10-04T11:49:17;101006.03;;;13.22;82.05
7200;BME280;3641;49.082;8.200;2022-10-04T11:52:01;101001.84;;;13.35;82.81
7200;BME280;3641;49.082;8.200;2022-10-04T11:54:48;100994.94;;;13.54;82.47
7200;BME280;3641;49.082;8.200;2022-10-04T11:57:29;100997.78;;;13.60;80.74
7200;BME280;3641;49.082;8.200;2022-10-04T12:00:06;100998.75;;;13.68;80.16
7200;BME280;3641;49.082;8.200;2022-10-04T12:02:59;100997.13;;;13.73;83.14
7200;BME280;3641;49.082;8.200;2022-10-04T12:05:51;101000.81;;;13.80;80.73
7200;BME280;3641;49.082;8.200;2022-10-04T12:08:28;100991.91;;;13.78;81.90
7200;BME280;3641;49.082;8.200;2022-10-04T12:11:46;100986.03;;;13.81;80.02
7200;BME280;3641;49.082;8.200;2022-10-04T12:14:52;100983.22;;;13.90;82.18
7200;BME280;3641;49.082;8.200;2022-10-04T12:17:38;100975.44;;;13.93;79.43
7200;BME280;3641;49.082;8.200;2022-10-04T12:20:53;100974.81;;;14.13;80.99
7200;BME280;3641;49.082;8.200;2022-10-04T12:23:51;100976.28;;;14.09;79.54
7200;BME280;3641;49.082;8.200;2022-10-04T12:26:51;100974.44;;;14.16;80.82
7200;BME280;3641;49.082;8.200;2022-10-04T12:29:57;100965.63;;;14.21;80.84
7200;BME280;3641;49.082;8.200;2022-10-04T12:32:33;100963.19;;;14.32;81.58
7200;BME280;3641;49.082;8.200;2022-10-04T12:35:08;100960.59;;;14.46;77.21
7200;BME280;3641;49.082;8.200;2022-10-04T12:38:02;100961.66;;;14.45;78.82
7200;BME280;3641;49.082;8.200;2022-10-04T12:40:40;100974.16;;;14.47;78.99
7200;BME280;3641;49.082;8.200;2022-10-04T12:43:15;100968.72;;;14.54;79.56
7200;BME280;3641;49.082;8.200;2022-10-04T12:46:00;100955.19;;;14.52;77.64
7200;BME280;3641;49.082;8.200;2022-10-04T12:48:40;100959.72;;;14.60;78.99
7200;BME280;3641;49.082;8.200;2022-10-04T12:51:20;100946.44;;;14.64;78.84
7200;BME280;3641;49.082;8.200;2022-10-04T12:53:56;100938.69;;;14.74;80.24
7200;BME280;3641;49.082;8.200;2022-10-04T12:56:41;100936.81;;;14.75;77.74
7200;BME280;3641;49.082;8.200;2022-10-04T12:59:38;100932.44;;;14.87;75.68
7200;BME280;3641;49.082;8.200;2022-10-04T13:02:20;100931.22;;;14.89;78.16
7200;BME280;3641;49.082;8.200;2022-10-04T13:04:49;100919.81;;;14.93;77.82
7200;BME280;3641;49.082;8.200;2022-10-04T13:07:37;100925.16;;;15.01;77.46
7200;BME280;3641;49.082;8.200;2022-10-04T13:13:16;100922.59;;;14.99;77.14
7200;BME280;3641;49.082;8.200;2022-10-04T13:15:50;100925.59;;;15.04;77.19
7200;BME280;3641;49.082;8.200;2022-10-04T13:18:24;100923.31;;;15.08;76.16
7200;BME280;3641;49.082;8.200;2022-10-04T13:20:59;100929.06;;;15.13;73.60
7200;BME280;3641;49.082;8.200;2022-10-04T13:23:37;100925.94;;;15.23;72.55
7200;BME280;3641;49.082;8.200;2022-10-04T13:26:41;100920.22;;;15.18;77.51
7200;BME280;3641;49.082;8.200;2022-10-04T13:29:19;100917.72;;;15.30;72.56
7200;BME280;3641;49.082;8.200;2022-10-04T13:31:51;100917.75;;;15.36;73.60
7200;BME280;3641;49.082;8.200;2022-10-04T13:34:30;100914.41;;;15.41;71.68
7200;BME280;3641;49.082;8.200;2022-10-04T13:37:30;100921.22;;;15.45;73.56
7200;BME280;3641;49.082;8.200;2022-10-04T13:40:21;100916.88;;;15.64;69.14
7200;BME280;3641;49.082;8.200;2022-10-04T13:43:02;100916.84;;;15.57;73.06
7200;BME280;3641;49.082;8.200;2022-10-04T13:45:42;100906.84;;;15.50;73.25
7200;BME280;3641;49.082;8.200;2022-10-04T13:48:24;100909.81;;;15.48;74.28
7200;BME280;3641;49.082;8.200;2022-10-04T13:51:00;100913.41;;;15.49;76.13
7200;BME280;3641;49.082;8.200;2022-10-04T13:53:39;100909.41;;;15.58;70.52
7200;BME280;3641;49.082;8.200;2022-10-04T13:56:48;100906.69;;;15.65;73.34
7200;BME280;3641;49.082;8.200;2022-10-04T13:59:29;100900.53;;;15.56;70.68
7200;BME280;3641;49.082;8.200;2022-10-04T14:02:17;100898.63;;;15.63;70.96
7200;BME280;3641;49.082;8.200;2022-10-04T14:08:08;100891.75;;;15.80;70.76
7200;BME280;3641;49.082;8.200;2022-10-04T14:10:56;100882.88;;;15.78;70.98
7200;BME280;3641;49.082;8.200;2022-10-04T14:13:52;100890.88;;;15.73;73.45
7200;BME280;3641;49.082;8.200;2022-10-04T14:16:37;100882.56;;;15.67;71.95
7200;BME280;3641;49.082;8.200;2022-10-04T14:19:49;100876.53;;;15.78;71.25
7200;BME280;3641;49.082;8.200;2022-10-04T14:23:05;100877.91;;;15.67;72.15
7200;BME280;3641;49.082;8.200;2022-10-04T14:25:58;100877.56;;;15.84;67.20
7200;BME280;3641;49.082;8.200;2022-10-04T14:29:05;100877.16;;;15.80;68.11
7200;BME280;3641;49.082;8.200;2022-10-04T14:31:55;100878.41;;;15.77;69.02
7200;BME280;3641;49.082;8.200;2022-10-04T14:34:38;100875.47;;;15.86;69.00
7200;BME280;3641;49.082;8.200;2022-10-04T14:37:28;100874.31;;;15.67;71.21
7200;BME280;3641;49.082;8.200;2022-10-04T14:40:17;100873.88;;;15.63;70.88
7200;BME280;3641;49.082;8.200;2022-10-04T14:43:11;100874.94;;;15.62;67.60
7200;BME280;3641;49.082;8.200;2022-10-04T14:45:59;100871.72;;;15.58;68.43
7200;BME280;3641;49.082;8.200;2022-10-04T14:48:48;100871.09;;;15.56;68.13
7200;BME280;3641;49.082;8.200;2022-10-04T14:51:28;100874.69;;;15.57;68.93
7200;BME280;3641;49.082;8.200;2022-10-04T14:54:03;100862.59;;;15.44;73.77
7200;BME280;3641;49.082;8.200;2022-10-04T14:56:57;100870.00;;;15.51;72.44